sensor_id;sensor_type;location;lat;lon;timestamp;P1;durP1;ratioP1;P2;durP2;ratioP2
16998;SDS011;10211;49.476;11.010;2022-12-18T00:01:01;19.50;;;13.60;;
16998;SDS011;10211;49.476;11.010;2022-12-18T00:03:31;21.03;;;12.43;;
16998;SDS011;10211;49.476;11.010;2022-12-18T00:05:58;37.97;;;17.13;;
16998;SDS011;10211;49.476;11.010;2022-12-18T00:08:25;44.10;;;21.53;;
16998;SDS011;10211;49.476;11.010;2022-12-18T00:10:52;30.30;;;19.10;;
16998;SDS011;10211;49.476;11.010;2022-12-18T00:13:20;35.47;;;20.83;;
16998;SDS011;10211;49.476;11.010;2022-12-18T00:15:47;36.33;;;17.80;;
16998;SDS011;10211;49.476;11.010;2022-12-18T00:18:13;24.07;;;14.03;;
16998;SDS011;10211;49.476;11.010;2022-12-18T00:20:40;28.53;;;16.73;;
16998;SDS011;10211;49.476;11.010;2022-12-18T00:23:07;34.80;;;21.07;;
16998;SDS011;10211;49.476;11.010;2022-12-18T00:25:34;33.83;;;20.17;;
16998;SDS011;10211;49.476;11.010;2022-12-18T00:28:02;38.60;;;18.47;;
16998;SDS011;10211;49.476;11.010;2022-12-18T00:30:31;42.30;;;18.33;;
16998;SDS011;10211;49.476;11.010;2022-12-18T00:32:58;34.87;;;19.10;;
16998;SDS011;10211;49.476;11.010;2022-12-18T00:35:26;22.23;;;13.60;;
16998;SDS011;10211;49.476;11.010;2022-12-18T00:37:52;17.33;;;12.13;;
16998;SDS011;10211;49.476;11.010;2022-12-18T00:40:19;32.33;;;14.83;;
16998;SDS011;10211;49.476;11.010;2022-12-18T00:42:46;29.83;;;17.03;;
16998;SDS011;10211;49.476;11.010;2022-12-18T00:45:24;26.57;;;15.37;;
16998;SDS011;10211;49.476;11.010;2022-12-18T00:47:53;27.57;;;13.50;;
16998;SDS011;10211;49.476;11.010;2022-12-18T00:50:21;31.20;;;17.53;;
16998;SDS011;10211;49.476;11.010;2022-12-18T00:52:48;27.73;;;16.00;;
16998;SDS011;10211;49.476;11.010;2022-12-18T00:55:16;17.13;;;11.80;;
16998;SDS011;10211;49.476;11.010;2022-12-18T00:57:43;31.67;;;18.70;;
16998;SDS011;10211;49.476;11.010;2022-12-18T01:00:11;21.17;;;11.80;;
16998;SDS011;10211;49.476;11.010;2022-12-18T01:02:41;36.30;;;19.60;;
16998;SDS011;10211;49.476;11.010;2022-12-18T01:07:47;36.70;;;19.80;;
16998;SDS011;10211;49.476;11.010;2022-12-18T01:10:14;52.13;;;22.63;;
16998;SDS011;10211;49.476;11.010;2022-12-18T01:12:41;28.07;;;19.43;;
16998;SDS011;10211;49.476;11.010;2022-12-18T01:15:09;29.57;;;15.10;;
16998;SDS011;10211;49.476;11.010;2022-12-18T01:17:38;28.87;;;10.77;;
16998;SDS011;10211;49.476;11.010;2022-12-18T01:20:05;18.43;;;11.30;;
16998;SDS011;10211;49.476;11.010;2022-12-18T01:22:34;17.33;;;12.00;;
16998;SDS011;10211;49.476;11.010;2022-12-18T01:25:02;10.93;;;9.63;;
16998;SDS011;10211;49.476;11.010;2022-12-18T01:27:30;10.80;;;8.23;;
16998;SDS011;10211;49.476;11.010;2022-12-18T01:29:57;19.73;;;11.30;;
16998;SDS011;10211;49.476;11.010;2022-12-18T01:32:24;15.87;;;10.30;;
16998;SDS011;10211;49.476;11.010;2022-12-18T01:34:51;20.93;;;12.60;;
16998;SDS011;10211;49.476;11.010;2022-12-18T01:37:18;35.57;;;17.07;;
16998;SDS011;10211;49.476;11.010;2022-12-18T01:39:46;26.97;;;16.87;;
16998;SDS011;10211;49.476;11.010;2022-12-18T01:42:14;28.83;;;16.67;;
16998;SDS011;10211;49.476;11.010;2022-12-18T01:44:53;31.23;;;15.90;;
16998;SDS011;10211;49.476;11.010;2022-12-18T01:47:23;35.30;;;15.40;;
16998;SDS011;10211;49.476;11.010;2022-12-18T01:49:54;31.43;;;16.10;;
16998;SDS011;10211;49.476;11.010;2022-12-18T01:52:22;34.17;;;15.50;;
16998;SDS011;10211;49.476;11.010;2022-12-18T01:54:52;36.07;;;17.13;;
16998;SDS011;10211;49.476;11.010;2022-12-18T01:57:20;44.27;;;17.03;;
16998;SDS011;10211;49.476;11.010;2022-12-18T01:59:49;28.60;;;15.70;;
16998;SDS011;10211;49.476;11.010;2022-12-18T02:02:19;34.40;;;15.70;;
16998;SDS011;10211;49.476;11.010;2022-12-18T02:04:46;28.07;;;16.07;;
16998;SDS011;10211;49.476;11.010;2022-12-18T02:07:14;33.23;;;13.33;;
16998;SDS011;10211;49.476;11.010;2022-12-18T02:09:50;36.37;;;15.80;;
16998;SDS011;10211;49.476;11.010;2022-12-18T02:12:25;26.70;;;15.30;;
16998;SDS011;10211;49.476;11.010;2022-12-18T02:14:58;25.00;;;13.77;;
16998;SDS011;10211;49.476;11.010;2022-12-18T02:17:33;43.83;;;15.93;;
16998;SDS011;10211;49.476;11.010;2022-12-18T02:20:05;24.63;;;14.53;;
16998;SDS011;10211;49.476;11.010;2022-12-18T02:22:43;35.30;;;15.93;;
16998;SDS011;10211;49.476;11.010;2022-12-18T02:25:23;26.80;;;15.20;;
16998;SDS011;10211;49.476;11.010;2022-12-18T02:28:02;41.73;;;17.20;;
16998;SDS011;10211;49.476;11.010;2022-12-18T02:30:32;36.87;;;15.67;;
16998;SDS011;10211;49.476;11.010;2022-12-18T02:33:01;38.63;;;15.80;;
16998;SDS011;10211;49.476;11.010;2022-12-18T02:35:30;38.73;;;15.80;;
16998;SDS011;10211;49.476;11.010;2022-12-18T02:37:58;34.90;;;16.33;;
16998;SDS011;10211;49.476;11.010;2022-12-18T02:40:26;31.83;;;14.87;;
16998;SDS011;10211;49.476;11.010;2022-12-18T02:42:54;32.97;;;16.17;;
16998;SDS011;10211;49.476;11.010;2022-12-18T02:45:22;36.80;;;16.70;;
16998;SDS011;10211;49.476;11.010;2022-12-18T02:47:49;34.33;;;15.57;;
16998;SDS011;10211;49.476;11.010;2022-12-18T02:50:18;40.33;;;14.70;;
16998;SDS011;10211;49.476;11.010;2022-12-18T02:52:53;28.60;;;15.70;;
16998;SDS011;10211;49.476;11.010;2022-12-18T02:55:32;31.73;;;16.33;;
16998;SDS011;10211;49.476;11.010;2022-12-18T02:58:12;37.87;;;16.70;;
16998;SDS011;10211;49.476;11.010;2022-12-18T03:00:46;36.70;;;15.87;;
16998;SDS011;10211;49.476;11.010;2022-12-18T03:03:18;31.97;;;16.20;;
16998;SDS011;10211;49.476;11.010;2022-12-18T03:05:51;40.67;;;16.60;;
16998;SDS011;10211;49.476;11.010;2022-12-18T03:08:21;30.53;;;14.27;;
16998;SDS011;10211;49.476;11.010;2022-12-18T03:10:51;40.97;;;15.50;;
16998;SDS011;10211;49.476;11.010;2022-12-18T03:13:25;35.67;;;16.03;;
16998;SDS011;10211;49.476;11.010;2022-12-18T03:15:55;34.33;;;15.73;;
16998;SDS011;10211;49.476;11.010;2022-12-18T03:18:25;31.53;;;15.27;;
16998;SDS011;10211;49.476;11.010;2022-12-18T03:20:55;32.87;;;15.53;;
16998;SDS011;10211;49.476;11.010;2022-12-18T03:23:25;33.33;;;15.87;;
16998;SDS011;10211;49.476;11.010;2022-12-18T03:25:56;41.20;;;17.00;;
16998;SDS011;10211;49.476;11.010;2022-12-18T03:28:26;34.73;;;16.57;;
16998;SDS011;10211;49.476;11.010;2022-12-18T03:31:00;38.23;;;15.10;;
16998;SDS011;10211;49.476;11.010;2022-12-18T03:33:29;33.30;;;14.60;;
16998;SDS011;10211;49.476;11.010;2022-12-18T03:36:00;33.67;;;15.53;;
16998;SDS011;10211;49.476;11.010;2022-12-18T03:38:28;36.23;;;15.37;;
16998;SDS011;10211;49.476;11.010;2022-12-18T03:40:56;34.30;;;15.87;;
16998;SDS011;10211;49.476;11.010;2022-12-18T03:43:32;27.97;;;15.10;;
16998;SDS011;10211;49.476;11.010;2022-12-18T03:46:08;26.97;;;13.77;;
16998;SDS011;10211;49.476;11.010;2022-12-18T03:48:43;33.60;;;15.80;;
16998;SDS011;10211;49.476;11.010;2022-12-18T03:51:14;26.03;;;13.23;;
16998;SDS011;10211;49.476;11.010;2022-12-18T03:53:46;36.50;;;16.17;;
16998;SDS011;10211;49.476;11.010;2022-12-18T03:56:19;32.07;;;14.37;;
16998;SDS011;10211;49.476;11.010;2022-12-18T03:58:48;36.97;;;14.83;;
16998;SDS011;10211;49.476;11.010;2022-12-18T04:01:19;34.83;;;15.37;;
16998;SDS011;10211;49.476;11.010;2022-12-18T04:03:50;26.80;;;13.57;;
16998;SDS011;10211;49.476;11.010;2022-12-18T04:06:18;26.30;;;15.70;;
16998;SDS011;10211;49.476;11.010;2022-12-18T04:08:45;33.43;;;15.47;;
16998;SDS011;10211;49.476;11.010;2022-12-18T04:11:13;34.43;;;15.33;;
16998;SDS011;10211;49.476;11.010;2022-12-18T04:13:41;34.17;;;14.50;;
16998;SDS011;10211;49.476;11.010;2022-12-18T04:16:09;30.13;;;13.33;;
16998;SDS011;10211;49.476;11.010;2022-12-18T04:18:37;31.80;;;14.33;;
16998;SDS011;10211;49.476;11.010;2022-12-18T04:21:04;26.53;;;12.20;;
16998;SDS011;10211;49.476;11.010;2022-12-18T04:23:31;27.77;;;12.23;;
16998;SDS011;10211;49.476;11.010;2022-12-18T04:25:58;19.43;;;11.27;;
16998;SDS011;10211;49.476;11.010;2022-12-18T04:28:24;24.47;;;12.40;;
16998;SDS011;10211;49.476;11.010;2022-12-18T04:30:51;22.80;;;11.37;;
16998;SDS011;10211;49.476;11.010;2022-12-18T04:33:18;24.33;;;12.07;;
16998;SDS011;10211;49.476;11.010;2022-12-18T04:35:46;22.60;;;12.47;;
16998;SDS011;10211;49.476;11.010;2022-12-18T04:38:13;21.20;;;11.27;;
16998;SDS011;10211;49.476;11.010;2022-12-18T04:40:40;28.13;;;11.23;;
16998;SDS011;10211;49.476;11.010;2022-12-18T04:43:07;22.83;;;12.23;;
16998;SDS011;10211;49.476;11.010;2022-12-18T04:45:34;24.27;;;11.67;;
16998;SDS011;10211;49.476;11.010;2022-12-18T04:48:01;28.07;;;12.40;;
16998;SDS011;10211;49.476;11.010;2022-12-18T04:50:28;21.33;;;11.13;;
16998;SDS011;10211;49.476;11.010;2022-12-18T04:52:57;21.87;;;11.80;;
16998;SDS011;10211;49.476;11.010;2022-12-18T04:55:24;22.67;;;11.13;;
16998;SDS011;10211;49.476;11.010;2022-12-18T04:57:51;22.93;;;12.20;;
16998;SDS011;10211;49.476;11.010;2022-12-18T05:00:19;24.87;;;12.77;;
16998;SDS011;10211;49.476;11.010;2022-12-18T05:02:46;25.00;;;11.60;;
16998;SDS011;10211;49.476;11.010;2022-12-18T05:05:13;23.03;;;11.13;;
16998;SDS011;10211;49.476;11.010;2022-12-18T05:07:39;25.50;;;11.57;;
16998;SDS011;10211;49.476;11.010;2022-12-18T05:10:08;25.37;;;12.93;;
16998;SDS011;10211;49.476;11.010;2022-12-18T05:12:35;29.50;;;13.77;;
16998;SDS011;10211;49.476;11.010;2022-12-18T05:15:23;28.87;;;14.23;;
16998;SDS011;10211;49.476;11.010;2022-12-18T05:17:50;32.03;;;14.87;;
16998;SDS011;10211;49.476;11.010;2022-12-18T05:20:16;40.03;;;13.80;;
16998;SDS011;10211;49.476;11.010;2022-12-18T05:22:44;25.60;;;12.33;;
16998;SDS011;10211;49.476;11.010;2022-12-18T05:25:12;34.20;;;13.10;;
16998;SDS011;10211;49.476;11.010;2022-12-18T05:27:39;30.47;;;14.50;;
16998;SDS011;10211;49.476;11.010;2022-12-18T05:30:06;30.93;;;14.13;;
16998;SDS011;10211;49.476;11.010;2022-12-18T05:32:34;24.23;;;13.00;;
16998;SDS011;10211;49.476;11.010;2022-12-18T05:35:01;26.73;;;12.70;;
16998;SDS011;10211;49.476;11.010;2022-12-18T05:37:30;24.63;;;11.83;;
16998;SDS011;10211;49.476;11.010;2022-12-18T05:39:57;24.60;;;12.60;;
16998;SDS011;10211;49.476;11.010;2022-12-18T05:42:25;23.10;;;12.53;;
16998;SDS011;10211;49.476;11.010;2022-12-18T05:44:52;20.73;;;11.13;;
16998;SDS011;10211;49.476;11.010;2022-12-18T05:47:19;26.50;;;14.13;;
16998;SDS011;10211;49.476;11.010;2022-12-18T05:49:45;27.70;;;14.23;;
16998;SDS011;10211;49.476;11.010;2022-12-18T05:52:12;21.33;;;10.10;;
16998;SDS011;10211;49.476;11.010;2022-12-18T05:54:39;26.67;;;12.23;;
16998;SDS011;10211;49.476;11.010;2022-12-18T05:57:06;28.97;;;13.00;;
16998;SDS011;10211;49.476;11.010;2022-12-18T05:59:36;25.63;;;12.03;;
16998;SDS011;10211;49.476;11.010;2022-12-18T06:02:03;25.93;;;12.53;;
16998;SDS011;10211;49.476;11.010;2022-12-18T06:04:31;28.00;;;12.80;;
16998;SDS011;10211;49.476;11.010;2022-12-18T06:06:58;28.97;;;12.37;;
16998;SDS011;10211;49.476;11.010;2022-12-18T06:09:25;24.10;;;11.40;;
16998;SDS011;10211;49.476;11.010;2022-12-18T06:11:52;23.77;;;13.07;;
16998;SDS011;10211;49.476;11.010;2022-12-18T06:14:19;27.73;;;10.97;;
16998;SDS011;10211;49.476;11.010;2022-12-18T06:16:47;25.17;;;12.30;;
16998;SDS011;10211;49.476;11.010;2022-12-18T06:19:16;23.80;;;12.50;;
16998;SDS011;10211;49.476;11.010;2022-12-18T06:21:43;25.07;;;13.40;;
16998;SDS011;10211;49.476;11.010;2022-12-18T06:24:09;23.03;;;11.97;;
16998;SDS011;10211;49.476;11.010;2022-12-18T06:26:37;31.93;;;12.77;;
16998;SDS011;10211;49.476;11.010;2022-12-18T06:29:04;25.90;;;11.37;;
16998;SDS011;10211;49.476;11.010;2022-12-18T06:31:31;27.03;;;12.83;;
16998;SDS011;10211;49.476;11.010;2022-12-18T06:34:00;25.20;;;12.53;;
16998;SDS011;10211;49.476;11.010;2022-12-18T06:36:31;26.63;;;11.13;;
16998;SDS011;10211;49.476;11.010;2022-12-18T06:38:58;26.17;;;12.20;;
16998;SDS011;10211;49.476;11.010;2022-12-18T06:41:26;27.13;;;10.97;;
16998;SDS011;10211;49.476;11.010;2022-12-18T06:43:53;23.33;;;11.00;;
16998;SDS011;10211;49.476;11.010;2022-12-18T06:46:19;26.93;;;12.27;;
16998;SDS011;10211;49.476;11.010;2022-12-18T06:48:47;29.10;;;12.93;;
16998;SDS011;10211;49.476;11.010;2022-12-18T06:51:17;21.37;;;11.27;;
16998;SDS011;10211;49.476;11.010;2022-12-18T06:53:44;21.30;;;11.67;;
16998;SDS011;10211;49.476;11.010;2022-12-18T06:56:11;29.60;;;11.90;;
16998;SDS011;10211;49.476;11.010;2022-12-18T06:58:38;22.60;;;10.30;;
16998;SDS011;10211;49.476;11.010;2022-12-18T07:01:06;23.13;;;11.03;;
16998;SDS011;10211;49.476;11.010;2022-12-18T07:03:34;27.07;;;11.70;;
16998;SDS011;10211;49.476;11.010;2022-12-18T07:06:02;24.77;;;10.87;;
16998;SDS011;10211;49.476;11.010;2022-12-18T07:08:31;21.23;;;10.97;;
16998;SDS011;10211;49.476;11.010;2022-12-18T07:10:58;21.30;;;11.67;;
16998;SDS011;10211;49.476;11.010;2022-12-18T07:13:25;29.87;;;12.77;;
16998;SDS011;10211;49.476;11.010;2022-12-18T07:15:52;27.17;;;10.57;;
16998;SDS011;10211;49.476;11.010;2022-12-18T07:18:18;24.30;;;9.93;;
16998;SDS011;10211;49.476;11.010;2022-12-18T07:20:45;24.27;;;11.23;;
16998;SDS011;10211;49.476;11.010;2022-12-18T07:23:12;26.70;;;12.33;;
16998;SDS011;10211;49.476;11.010;2022-12-18T07:25:40;27.13;;;11.03;;
16998;SDS011;10211;49.476;11.010;2022-12-18T07:28:06;25.87;;;11.50;;
16998;SDS011;10211;49.476;11.010;2022-12-18T07:30:33;23.13;;;11.17;;
16998;SDS011;10211;49.476;11.010;2022-12-18T07:33:03;26.20;;;12.40;;
16998;SDS011;10211;49.476;11.010;2022-12-18T07:35:29;28.40;;;11.67;;
16998;SDS011;10211;49.476;11.010;2022-12-18T07:37:56;25.63;;;12.07;;
16998;SDS011;10211;49.476;11.010;2022-12-18T07:40:23;21.87;;;11.00;;
16998;SDS011;10211;49.476;11.010;2022-12-18T07:42:51;23.93;;;12.50;;
16998;SDS011;10211;49.476;11.010;2022-12-18T07:45:18;21.10;;;11.07;;
16998;SDS011;10211;49.476;11.010;2022-12-18T07:47:45;28.97;;;12.53;;
16998;SDS011;10211;49.476;11.010;2022-12-18T07:50:11;23.80;;;11.90;;
16998;SDS011;10211;49.476;11.010;2022-12-18T07:52:38;27.90;;;11.87;;
16998;SDS011;10211;49.476;11.010;2022-12-18T07:55:05;31.23;;;11.93;;
16998;SDS011;10211;49.476;11.010;2022-12-18T07:57:32;24.77;;;11.37;;
16998;SDS011;10211;49.476;11.010;2022-12-18T08:00:02;30.53;;;12.07;;
16998;SDS011;10211;49.476;11.010;2022-12-18T08:02:30;28.53;;;12.30;;
16998;SDS011;10211;49.476;11.010;2022-12-18T08:04:57;27.67;;;12.47;;
16998;SDS011;10211;49.476;11.010;2022-12-18T08:07:24;33.00;;;12.67;;
16998;SDS011;10211;49.476;11.010;2022-12-18T08:09:51;28.90;;;13.00;;
16998;SDS011;10211;49.476;11.010;2022-12-18T08:12:17;21.97;;;11.77;;
16998;SDS011;10211;49.476;11.010;2022-12-18T08:14:44;28.83;;;12.63;;
16998;SDS011;10211;49.476;11.010;2022-12-18T08:17:14;25.13;;;11.37;;
16998;SDS011;10211;49.476;11.010;2022-12-18T08:19:41;25.33;;;12.47;;
16998;SDS011;10211;49.476;11.010;2022-12-18T08:22:08;30.50;;;13.37;;
16998;SDS011;10211;49.476;11.010;2022-12-18T08:24:35;32.83;;;13.90;;
16998;SDS011;10211;49.476;11.010;2022-12-18T08:27:02;31.43;;;15.23;;
16998;SDS011;10211;49.476;11.010;2022-12-18T08:29:29;30.57;;;13.43;;
16998;SDS011;10211;49.476;11.010;2022-12-18T08:31:56;26.13;;;12.93;;
16998;SDS011;10211;49.476;11.010;2022-12-18T08:37:19;28.80;;;14.23;;
16998;SDS011;10211;49.476;11.010;2022-12-18T08:39:48;35.40;;;13.47;;
16998;SDS011;10211;49.476;11.010;2022-12-18T08:42:15;33.33;;;15.27;;
16998;SDS011;10211;49.476;11.010;2022-12-18T08:45:01;31.67;;;14.07;;
16998;SDS011;10211;49.476;11.010;2022-12-18T08:47:29;25.73;;;11.67;;
16998;SDS011;10211;49.476;11.010;2022-12-18T08:49:57;27.73;;;13.80;;
16998;SDS011;10211;49.476;11.010;2022-12-18T08:52:24;24.97;;;12.93;;
16998;SDS011;10211;49.476;11.010;2022-12-18T08:54:50;32.17;;;13.80;;
16998;SDS011;10211;49.476;11.010;2022-12-18T08:57:17;27.73;;;11.80;;
16998;SDS011;10211;49.476;11.010;2022-12-18T08:59:44;24.83;;;11.17;;
16998;SDS011;10211;49.476;11.010;2022-12-18T09:02:11;24.50;;;11.70;;
16998;SDS011;10211;49.476;11.010;2022-12-18T09:04:38;25.73;;;12.13;;
16998;SDS011;10211;49.476;11.010;2022-12-18T09:07:07;30.53;;;12.67;;
16998;SDS011;10211;49.476;11.010;2022-12-18T09:09:34;28.87;;;12.93;;
16998;SDS011;10211;49.476;11.010;2022-12-18T09:12:01;21.60;;;11.27;;
16998;SDS011;10211;49.476;11.010;2022-12-18T09:14:28;19.03;;;10.97;;
16998;SDS011;10211;49.476;11.010;2022-12-18T09:16:55;20.37;;;10.90;;
16998;SDS011;10211;49.476;11.010;2022-12-18T09:19:22;23.10;;;10.43;;
16998;SDS011;10211;49.476;11.010;2022-12-18T09:21:49;23.77;;;12.53;;
16998;SDS011;10211;49.476;11.010;2022-12-18T09:24:18;20.20;;;11.90;;
16998;SDS011;10211;49.476;11.010;2022-12-18T09:26:46;23.80;;;11.10;;
16998;SDS011;10211;49.476;11.010;2022-12-18T09:29:13;20.83;;;10.93;;
16998;SDS011;10211;49.476;11.010;2022-12-18T09:31:42;23.30;;;10.57;;
16998;SDS011;10211;49.476;11.010;2022-12-18T09:34:09;22.50;;;11.17;;
16998;SDS011;10211;49.476;11.010;2022-12-18T09:36:36;23.07;;;11.93;;
16998;SDS011;10211;49.476;11.010;2022-12-18T09:39:03;21.80;;;10.37;;
16998;SDS011;10211;49.476;11.010;2022-12-18T09:41:35;24.80;;;11.97;;
16998;SDS011;10211;49.476;11.010;2022-12-18T09:44:12;23.57;;;11.67;;
16998;SDS011;10211;49.476;11.010;2022-12-18T09:46:45;22.83;;;10.73;;
16998;SDS011;10211;49.476;11.010;2022-12-18T09:49:18;27.13;;;12.37;;
16998;SDS011;10211;49.476;11.010;2022-12-18T09:51:49;26.17;;;12.13;;
16998;SDS011;10211;49.476;11.010;2022-12-18T09:54:21;28.97;;;12.40;;
16998;SDS011;10211;49.476;11.010;2022-12-18T09:56:52;22.20;;;11.40;;
16998;SDS011;10211;49.476;11.010;2022-12-18T09:59:23;20.10;;;11.50;;
16998;SDS011;10211;49.476;11.010;2022-12-18T10:01:53;20.60;;;11.37;;
16998;SDS011;10211;49.476;11.010;2022-12-18T10:04:20;19.30;;;10.03;;
16998;SDS011;10211;49.476;11.010;2022-12-18T10:06:49;17.30;;;10.23;;
16998;SDS011;10211;49.476;11.010;2022-12-18T10:09:24;22.00;;;11.17;;
16998;SDS011;10211;49.476;11.010;2022-12-18T10:11:58;18.97;;;10.37;;
16998;SDS011;10211;49.476;11.010;2022-12-18T10:14:34;22.17;;;11.30;;
16998;SDS011;10211;49.476;11.010;2022-12-18T10:17:09;19.00;;;10.20;;
16998;SDS011;10211;49.476;11.010;2022-12-18T10:19:45;18.27;;;10.30;;
16998;SDS011;10211;49.476;11.010;2022-12-18T10:22:29;17.93;;;9.93;;
16998;SDS011;10211;49.476;11.010;2022-12-18T10:25:05;18.87;;;10.37;;
16998;SDS011;10211;49.476;11.010;2022-12-18T10:27:42;22.43;;;10.67;;
16998;SDS011;10211;49.476;11.010;2022-12-18T10:30:12;21.73;;;11.03;;
16998;SDS011;10211;49.476;11.010;2022-12-18T10:32:41;19.20;;;10.47;;
16998;SDS011;10211;49.476;11.010;2022-12-18T10:35:11;20.80;;;10.17;;
16998;SDS011;10211;49.476;11.010;2022-12-18T10:37:58;20.03;;;10.03;;
16998;SDS011;10211;49.476;11.010;2022-12-18T10:40:26;19.13;;;9.93;;
16998;SDS011;10211;49.476;11.010;2022-12-18T10:43:04;19.87;;;9.80;;
16998;SDS011;10211;49.476;11.010;2022-12-18T10:45:32;19.10;;;10.10;;
16998;SDS011;10211;49.476;11.010;2022-12-18T10:48:00;20.87;;;10.17;;
16998;SDS011;10211;49.476;11.010;2022-12-18T10:50:28;18.70;;;9.83;;
16998;SDS011;10211;49.476;11.010;2022-12-18T10:52:58;22.00;;;11.27;;
16998;SDS011;10211;49.476;11.010;2022-12-18T10:55:30;22.17;;;10.63;;
16998;SDS011;10211;49.476;11.010;2022-12-18T11:01:01;23.17;;;10.67;;
16998;SDS011;10211;49.476;11.010;2022-12-18T11:03:34;23.90;;;11.07;;
16998;SDS011;10211;49.476;11.010;2022-12-18T11:06:04;17.93;;;10.40;;
16998;SDS011;10211;49.476;11.010;2022-12-18T11:08:32;22.03;;;11.43;;
16998;SDS011;10211;49.476;11.010;2022-12-18T11:10:59;20.23;;;10.27;;
16998;SDS011;10211;49.476;11.010;2022-12-18T11:13:28;20.70;;;11.10;;
16998;SDS011;10211;49.476;11.010;2022-12-18T11:15:57;19.57;;;11.73;;
16998;SDS011;10211;49.476;11.010;2022-12-18T11:18:25;18.30;;;10.17;;
16998;SDS011;10211;49.476;11.010;2022-12-18T11:20:56;21.07;;;11.67;;
16998;SDS011;10211;49.476;11.010;2022-12-18T11:23:26;20.63;;;10.87;;
16998;SDS011;10211;49.476;11.010;2022-12-18T11:25:54;21.93;;;11.30;;
16998;SDS011;10211;49.476;11.010;2022-12-18T11:28:28;24.93;;;11.37;;
16998;SDS011;10211;49.476;11.010;2022-12-18T11:31:17;19.93;;;9.73;;
16998;SDS011;10211;49.476;11.010;2022-12-18T11:33:47;18.60;;;11.20;;
16998;SDS011;10211;49.476;11.010;2022-12-18T11:36:22;19.97;;;10.77;;
16998;SDS011;10211;49.476;11.010;2022-12-18T11:38:50;23.57;;;12.00;;
16998;SDS011;10211;49.476;11.010;2022-12-18T11:41:21;25.03;;;11.43;;
16998;SDS011;10211;49.476;11.010;2022-12-18T11:44:18;20.67;;;10.60;;
16998;SDS011;10211;49.476;11.010;2022-12-18T11:46:51;20.70;;;10.97;;
16998;SDS011;10211;49.476;11.010;2022-12-18T11:49:22;16.47;;;9.40;;
16998;SDS011;10211;49.476;11.010;2022-12-18T11:51:58;18.90;;;9.90;;
16998;SDS011;10211;49.476;11.010;2022-12-18T11:54:27;20.37;;;11.13;;
16998;SDS011;10211;49.476;11.010;2022-12-18T11:56:55;21.37;;;10.37;;
16998;SDS011;10211;49.476;11.010;2022-12-18T11:59:31;22.30;;;11.47;;
16998;SDS011;10211;49.476;11.010;2022-12-18T12:02:12;21.40;;;11.33;;
16998;SDS011;10211;49.476;11.010;2022-12-18T12:04:50;24.03;;;11.67;;
16998;SDS011;10211;49.476;11.010;2022-12-18T12:07:41;20.93;;;10.30;;
16998;SDS011;10211;49.476;11.010;2022-12-18T12:10:18;20.03;;;9.77;;
16998;SDS011;10211;49.476;11.010;2022-12-18T12:13:01;20.50;;;10.57;;
16998;SDS011;10211;49.476;11.010;2022-12-18T12:15:49;18.20;;;10.73;;
16998;SDS011;10211;49.476;11.010;2022-12-18T12:18:27;19.93;;;10.80;;
16998;SDS011;10211;49.476;11.010;2022-12-18T12:21:01;20.73;;;11.07;;
16998;SDS011;10211;49.476;11.010;2022-12-18T12:23:35;26.77;;;11.47;;
16998;SDS011;10211;49.476;11.010;2022-12-18T12:26:08;24.60;;;11.87;;
16998;SDS011;10211;49.476;11.010;2022-12-18T12:28:48;23.20;;;11.23;;
16998;SDS011;10211;49.476;11.010;2022-12-18T12:31:31;21.80;;;11.00;;
16998;SDS011;10211;49.476;11.010;2022-12-18T12:34:09;21.10;;;11.30;;
16998;SDS011;10211;49.476;11.010;2022-12-18T12:36:46;26.63;;;12.60;;
16998;SDS011;10211;49.476;11.010;2022-12-18T12:39:26;20.77;;;10.93;;
16998;SDS011;10211;49.476;11.010;2022-12-18T12:41:56;22.97;;;11.13;;
16998;SDS011;10211;49.476;11.010;2022-12-18T12:44:42;21.87;;;10.73;;
16998;SDS011;10211;49.476;11.010;2022-12-18T12:47:14;25.60;;;11.27;;
16998;SDS011;10211;49.476;11.010;2022-12-18T12:49:45;21.83;;;12.40;;
16998;SDS011;10211;49.476;11.010;2022-12-18T12:52:14;24.03;;;10.90;;
16998;SDS011;10211;49.476;11.010;2022-12-18T12:54:47;24.47;;;12.30;;
16998;SDS011;10211;49.476;11.010;2022-12-18T12:57:16;20.87;;;10.33;;
16998;SDS011;10211;49.476;11.010;2022-12-18T12:59:49;21.67;;;11.47;;
16998;SDS011;10211;49.476;11.010;2022-12-18T13:02:28;22.37;;;11.37;;
16998;SDS011;10211;49.476;11.010;2022-12-18T13:05:00;23.27;;;10.63;;
16998;SDS011;10211;49.476;11.010;2022-12-18T13:07:35;18.73;;;10.60;;
16998;SDS011;10211;49.476;11.010;2022-12-18T13:10:23;19.33;;;10.13;;
16998;SDS011;10211;49.476;11.010;2022-12-18T13:12:58;21.00;;;10.20;;
16998;SDS011;10211;49.476;11.010;2022-12-18T13:15:30;21.77;;;10.53;;
16998;SDS011;10211;49.476;11.010;2022-12-18T13:18:04;23.53;;;11.03;;
16998;SDS011;10211;49.476;11.010;2022-12-18T13:20:39;23.07;;;11.27;;
16998;SDS011;10211;49.476;11.010;2022-12-18T13:23:31;22.83;;;10.43;;
16998;SDS011;10211;49.476;11.010;2022-12-18T13:25:59;21.00;;;10.50;;
16998;SDS011;10211;49.476;11.010;2022-12-18T13:28:51;55.47;;;25.33;;
16998;SDS011;10211;49.476;11.010;2022-12-18T13:34:36;21.90;;;11.17;;
16998;SDS011;10211;49.476;11.010;2022-12-18T13:43:24;22.80;;;10.90;;
16998;SDS011;10211;49.476;11.010;2022-12-18T13:48:54;24.47;;;10.80;;
16998;SDS011;10211;49.476;11.010;2022-12-18T13:51:24;34.07;;;16.40;;
16998;SDS011;10211;49.476;11.010;2022-12-18T13:53:53;33.50;;;18.77;;
16998;SDS011;10211;49.476;11.010;2022-12-18T13:56:23;39.53;;;21.50;;
16998;SDS011;10211;49.476;11.010;2022-12-18T13:59:14;26.50;;;11.77;;
16998;SDS011;10211;49.476;11.010;2022-12-18T14:01:45;20.63;;;11.73;;
16998;SDS011;10211;49.476;11.010;2022-12-18T14:04:18;24.43;;;13.10;;
16998;SDS011;10211;49.476;11.010;2022-12-18T14:06:53;23.87;;;10.93;;
16998;SDS011;10211;49.476;11.010;2022-12-18T14:09:24;22.60;;;9.43;;
16998;SDS011;10211;49.476;11.010;2022-12-18T14:11:54;16.43;;;9.47;;
16998;SDS011;10211;49.476;11.010;2022-12-18T14:14:37;17.53;;;9.87;;
16998;SDS011;10211;49.476;11.010;2022-12-18T14:17:08;24.47;;;10.43;;
16998;SDS011;10211;49.476;11.010;2022-12-18T14:19:36;19.83;;;9.77;;
16998;SDS011;10211;49.476;11.010;2022-12-18T14:22:10;21.53;;;9.83;;
16998;SDS011;10211;49.476;11.010;2022-12-18T14:24:40;20.20;;;8.97;;
16998;SDS011;10211;49.476;11.010;2022-12-18T14:27:12;19.97;;;9.63;;
16998;SDS011;10211;49.476;11.010;2022-12-18T14:29:47;21.17;;;11.33;;
16998;SDS011;10211;49.476;11.010;2022-12-18T14:32:14;19.23;;;10.10;;
16998;SDS011;10211;49.476;11.010;2022-12-18T14:34:43;19.60;;;10.23;;
16998;SDS011;10211;49.476;11.010;2022-12-18T14:37:12;19.47;;;10.77;;
16998;SDS011;10211;49.476;11.010;2022-12-18T14:39:40;23.40;;;11.73;;
16998;SDS011;10211;49.476;11.010;2022-12-18T14:42:17;19.07;;;10.50;;
16998;SDS011;10211;49.476;11.010;2022-12-18T14:44:44;20.77;;;10.23;;
16998;SDS011;10211;49.476;11.010;2022-12-18T14:47:13;17.00;;;9.63;;